Terminal Aerodrome Forecast
Issued by NWS

Home | Current Version | Previous Version | Text Only | Print | Product List | Glossary On
Versions: 1 2 3 4 5 6 7 8 9 10 11 12 13 14 15 16 17 18 19 20 21 22 23 24 25 26 27 28 29 30
000
FTUS42 KCAE 181304 AAA
TAFOGB
TAF AMD
KOGB 181304Z 1813/1912 24012KT P6SM SCT015 BKN150
      TEMPO 1813/1815 BKN015
     FM181500 26012G20KT P6SM FEW015 BKN030
     FM181700 27015G22KT P6SM SCT030 BKN250
     FM182200 29008KT P6SM SCT250
     FM190200 28003KT P6SM SKC=

USA.gov is the U.S. government's official web portal to all federal, state and local government web resources and services.